createdAt,value
2019-05-07T00:01:18.216Z,2.13
2019-05-07T00:06:23.093Z,2.33
2019-05-07T00:11:26.567Z,2.05
2019-05-07T00:16:29.903Z,2.45
2019-05-07T00:21:33.239Z,2.00
2019-05-07T00:26:36.755Z,1.95
2019-05-07T00:31:41.976Z,2.33
2019-05-07T00:36:49.851Z,2.00
2019-05-07T00:42:02.934Z,2.08
2019-05-07T00:47:05.714Z,1.60
2019-05-07T00:52:11.506Z,2.02
2019-05-07T00:57:14.190Z,1.62
2019-05-07T01:02:17.488Z,1.90
2019-05-07T01:07:22.877Z,1.82
2019-05-07T01:12:25.881Z,1.90
2019-05-07T01:17:29.218Z,1.72
2019-05-07T01:22:33.125Z,2.00
2019-05-07T01:27:36.546Z,1.92
2019-05-07T01:32:47.494Z,1.65
2019-05-07T01:37:52.461Z,2.08
2019-05-07T01:42:55.778Z,1.60
2019-05-07T01:47:59.085Z,1.65
2019-05-07T01:53:03.899Z,1.70
2019-05-07T01:58:07.370Z,1.90
2019-05-07T02:03:12.323Z,2.10
2019-05-07T02:08:32.955Z,1.82
2019-05-07T02:13:36.341Z,1.70
2019-05-07T02:18:39.632Z,1.80
2019-05-07T02:23:42.938Z,1.90
2019-05-07T02:28:46.258Z,2.10
2019-05-07T02:33:49.574Z,1.57
2019-05-07T02:38:57.172Z,1.45
2019-05-07T02:44:03.966Z,1.90
2019-05-07T02:49:14.234Z,1.57
2019-05-07T02:54:35.087Z,1.70
2019-05-07T02:59:38.470Z,1.90
2019-05-07T03:04:43.611Z,1.50
2019-05-07T03:09:46.837Z,1.65
2019-05-07T03:14:53.368Z,1.60
2019-05-07T03:19:56.476Z,1.77
2019-05-07T03:25:03.429Z,1.80
2019-05-07T03:30:25.559Z,1.42
2019-05-07T03:35:27.699Z,1.50
2019-05-07T03:40:33.145Z,2.05
2019-05-07T03:45:38.107Z,3.58
2019-05-07T03:50:43.121Z,3.08
2019-05-07T03:55:46.442Z,5.10
2019-05-07T04:00:53.167Z,4.90
2019-05-07T04:05:54.781Z,4.15
2019-05-07T04:10:58.110Z,5.72
2019-05-07T04:16:04.069Z,6.95
2019-05-07T04:21:06.524Z,6.08
2019-05-07T04:26:23.151Z,5.85
2019-05-07T04:31:27.181Z,6.05
2019-05-07T04:36:34.239Z,6.20
2019-05-07T04:41:36.898Z,6.80
2019-05-07T04:46:43.767Z,5.15
2019-05-07T04:51:49.359Z,6.10
2019-05-07T04:56:53.289Z,4.80
2019-05-07T05:02:03.854Z,5.97
2019-05-07T05:12:08.657Z,5.45
2019-05-07T05:17:12.993Z,5.80
2019-05-07T05:22:17.966Z,4.65
2019-05-07T05:27:22.599Z,5.03
2019-05-07T05:32:25.998Z,5.67
2019-05-07T05:37:29.316Z,4.40
2019-05-07T05:42:34.271Z,4.72
2019-05-07T05:47:37.566Z,4.35
2019-05-07T05:52:42.573Z,4.50
2019-05-07T05:57:56.075Z,4.10
2019-05-07T06:03:06.857Z,4.20
2019-05-07T06:08:12.443Z,3.67
2019-05-07T06:13:32.414Z,4.20
2019-05-07T06:18:53.622Z,4.05
2019-05-07T06:24:02.251Z,3.80
2019-05-07T06:29:05.615Z,4.28
2019-05-07T06:34:08.929Z,3.62
2019-05-07T06:39:22.039Z,3.87
2019-05-07T06:44:25.188Z,4.25
2019-05-07T06:49:28.499Z,3.27
2019-05-07T06:54:32.198Z,3.65
2019-05-07T06:59:42.234Z,3.87
2019-05-07T07:04:46.819Z,3.47
2019-05-07T07:09:57.361Z,4.17
2019-05-07T07:15:02.780Z,3.00
2019-05-07T07:20:06.309Z,4.15
2019-05-07T07:25:11.764Z,3.55
2019-05-07T07:30:25.020Z,3.15
2019-05-07T07:35:42.823Z,3.40
2019-05-07T07:40:47.835Z,3.60
2019-05-07T07:45:52.590Z,3.67
2019-05-07T07:50:55.902Z,3.20
2019-05-07T07:56:16.773Z,3.35
2019-05-07T08:01:27.835Z,3.65
2019-05-07T08:06:32.728Z,3.85
2019-05-07T08:11:36.049Z,3.37
2019-05-07T08:16:39.385Z,3.08
2019-05-07T08:21:42.725Z,3.30
2019-05-07T08:26:46.070Z,3.80
2019-05-07T08:31:59.747Z,3.20
2019-05-07T08:37:03.161Z,3.30
2019-05-07T08:42:06.490Z,2.77
2019-05-07T08:47:20.005Z,3.50
2019-05-07T08:52:25.890Z,3.42
2019-05-07T08:57:28.403Z,3.62
2019-05-07T09:02:32.626Z,3.80
2019-05-07T09:07:36.022Z,3.67
2019-05-07T09:12:39.319Z,3.45
2019-05-07T09:17:42.640Z,3.08
2019-05-07T09:22:45.940Z,3.25
2019-05-07T09:27:52.348Z,3.20
2019-05-07T09:33:06.089Z,3.42
2019-05-07T09:38:09.377Z,3.30
2019-05-07T09:43:12.730Z,3.20
2019-05-07T09:48:16.073Z,3.30
2019-05-07T09:53:19.370Z,3.08
2019-05-07T09:58:35.709Z,3.42
2019-05-07T10:03:27.753Z,3.77
2019-05-07T10:08:32.598Z,3.20
2019-05-07T10:13:37.547Z,3.42
2019-05-07T10:18:42.705Z,3.15
2019-05-07T10:23:46.096Z,3.67
2019-05-07T10:28:49.399Z,3.40
2019-05-07T10:33:52.753Z,3.00
2019-05-07T10:38:56.053Z,3.52
2019-05-07T10:43:59.435Z,3.27
2019-05-07T10:49:18.979Z,3.47
2019-05-07T10:54:22.307Z,3.15
2019-05-07T10:59:25.626Z,3.08
2019-05-07T11:04:40.263Z,2.80
2019-05-07T11:09:34.065Z,3.50
2019-05-07T11:14:37.406Z,3.12
2019-05-07T11:19:41.671Z,3.08
2019-05-07T11:24:45.026Z,2.95
2019-05-07T11:29:48.368Z,3.02
2019-05-07T11:34:52.877Z,3.20
2019-05-07T11:39:56.790Z,3.40
2019-05-07T11:45:02.173Z,2.67
2019-05-07T11:50:14.743Z,3.58
2019-05-07T11:55:18.251Z,2.92
2019-05-07T12:00:38.892Z,3.45
2019-05-07T12:05:42.391Z,3.60
2019-05-07T12:10:45.726Z,3.33
2019-05-07T12:15:49.053Z,3.20
2019-05-07T12:20:54.209Z,3.40
2019-05-07T12:25:57.608Z,3.17
2019-05-07T12:31:14.660Z,3.08
2019-05-07T12:36:18.076Z,3.20
2019-05-07T12:41:30.028Z,2.90
2019-05-07T12:46:33.636Z,3.15
2019-05-07T12:51:38.602Z,2.72
2019-05-07T12:56:42.657Z,3.00
2019-05-07T13:01:52.015Z,2.65
2019-05-07T13:07:08.568Z,2.60
2019-05-07T13:12:11.874Z,3.10
2019-05-07T13:17:15.196Z,2.90
2019-05-07T13:22:18.498Z,2.98
2019-05-07T13:27:21.883Z,2.50
2019-05-07T13:32:25.192Z,3.10
2019-05-07T13:37:30.129Z,2.92
2019-05-07T13:42:44.127Z,2.60
2019-05-07T13:47:49.161Z,2.40
2019-05-07T13:52:52.465Z,3.27
2019-05-07T13:57:55.814Z,2.70
2019-05-07T14:02:59.150Z,3.12
2019-05-07T14:08:04.527Z,3.47
2019-05-07T14:13:14.221Z,3.58
2019-05-07T14:18:12.674Z,3.17
2019-05-07T14:23:15.992Z,3.52
2019-05-07T14:28:19.288Z,3.00
2019-05-07T14:33:39.090Z,3.12
2019-05-07T14:38:46.759Z,4.15
2019-05-07T14:43:57.208Z,4.10
2019-05-07T14:49:02.633Z,3.62
2019-05-07T14:54:05.547Z,3.80
2019-05-07T14:59:08.855Z,3.83
2019-05-07T15:04:12.914Z,3.87
2019-05-07T15:09:16.331Z,3.70
2019-05-07T15:14:19.637Z,3.55
2019-05-07T15:19:23.022Z,3.87
2019-05-07T15:24:26.310Z,3.08
2019-05-07T15:29:31.742Z,3.90
2019-05-07T15:34:34.672Z,3.37
2019-05-07T15:39:38.337Z,3.37
2019-05-07T15:44:43.191Z,3.98
2019-05-07T15:49:46.528Z,3.27
2019-05-07T15:54:49.827Z,7.95
2019-05-07T15:59:54.825Z,23.50
2019-05-07T16:04:58.160Z,31.23
2019-05-07T16:10:01.525Z,59.75
2019-05-07T16:15:07.094Z,52.95
2019-05-07T16:20:12.055Z,60.55
2019-05-07T16:25:15.513Z,84.72
2019-05-07T16:30:18.856Z,115.37
2019-05-07T16:35:22.758Z,116.55
2019-05-07T16:40:26.242Z,120.02
2019-05-07T16:45:29.550Z,112.92
2019-05-07T16:50:32.915Z,109.63
2019-05-07T16:55:36.974Z,110.75
2019-05-07T17:00:42.378Z,104.90
2019-05-07T17:05:45.750Z,99.52
2019-05-07T17:10:49.120Z,99.87
2019-05-07T17:15:56.577Z,96.10
2019-05-07T17:21:01.880Z,89.22
2019-05-07T17:26:05.132Z,85.85
2019-05-07T17:31:08.502Z,85.97
2019-05-07T17:36:12.267Z,83.90
2019-05-07T17:41:21.270Z,82.27
2019-05-07T17:46:21.704Z,76.60
2019-05-07T17:51:42.290Z,72.00
2019-05-07T17:56:45.769Z,63.00
2019-05-07T18:01:53.228Z,66.20
2019-05-07T18:06:56.600Z,76.20
2019-05-07T18:11:59.932Z,89.07
2019-05-07T18:17:04.893Z,89.87
2019-05-07T18:22:08.367Z,82.25
2019-05-07T18:27:13.323Z,73.30
2019-05-07T18:32:16.634Z,63.23
2019-05-07T18:37:19.944Z,57.60
2019-05-07T18:42:23.271Z,54.50
2019-05-07T18:47:26.680Z,50.05
2019-05-07T18:52:31.892Z,43.28
2019-05-07T18:57:35.098Z,35.70
2019-05-07T19:02:38.471Z,36.42
2019-05-07T19:07:41.869Z,29.35
2019-05-07T19:12:45.337Z,33.23
2019-05-07T19:17:48.656Z,32.10
2019-05-07T19:22:52.045Z,34.08
2019-05-07T19:27:55.396Z,32.90
2019-05-07T19:32:58.721Z,31.75
2019-05-07T19:38:02.849Z,31.07
2019-05-07T19:43:06.499Z,28.30
2019-05-07T19:48:09.862Z,27.52
2019-05-07T19:53:13.266Z,28.32
2019-05-07T19:58:16.576Z,28.07
2019-05-07T20:03:22.223Z,28.02
2019-05-07T20:08:24.993Z,26.73
2019-05-07T20:13:28.378Z,26.90
2019-05-07T20:18:32.718Z,25.05
2019-05-07T20:23:36.515Z,25.15
2019-05-07T20:28:41.693Z,28.60
2019-05-07T20:33:44.871Z,26.57
2019-05-07T20:38:48.183Z,28.05
2019-05-07T20:43:52.380Z,25.37
2019-05-07T20:48:55.795Z,25.95
2019-05-07T20:54:03.534Z,24.52
2019-05-07T20:59:06.934Z,24.52
2019-05-07T21:04:12.752Z,24.60
2019-05-07T21:09:15.352Z,23.12
2019-05-07T21:14:18.651Z,23.05
2019-05-07T21:19:22.432Z,22.30
2019-05-07T21:24:25.860Z,22.85
2019-05-07T21:29:29.166Z,22.13
2019-05-07T21:34:32.493Z,22.40
2019-05-07T21:39:35.809Z,22.20
2019-05-07T21:44:39.119Z,21.02
2019-05-07T21:49:43.147Z,19.55
2019-05-07T21:54:48.087Z,20.08
2019-05-07T21:59:54.972Z,19.87
2019-05-07T22:04:58.121Z,19.20
2019-05-07T22:10:02.198Z,18.17
2019-05-07T22:15:05.658Z,20.10
2019-05-07T22:20:08.982Z,19.30
2019-05-07T22:25:13.109Z,17.75
2019-05-07T22:30:24.084Z,19.35
2019-05-07T22:35:32.019Z,18.55
2019-05-07T22:40:35.354Z,19.05
2019-05-07T22:45:38.772Z,18.12
2019-05-07T22:50:44.000Z,17.77
2019-05-07T22:55:47.186Z,17.52
2019-05-07T23:00:57.886Z,16.77
2019-05-07T23:06:06.789Z,16.85
2019-05-07T23:11:12.321Z,15.43
2019-05-07T23:16:15.180Z,15.28
2019-05-07T23:21:18.481Z,15.23
2019-05-07T23:26:23.344Z,15.68
2019-05-07T23:31:26.851Z,15.38
2019-05-07T23:36:30.217Z,16.40
2019-05-07T23:41:44.193Z,15.90
2019-05-07T23:46:47.534Z,15.60
2019-05-07T23:51:52.820Z,14.50
2019-05-07T23:57:05.921Z,14.60
